Time;durP1;ratioP1;P1;durP2;ratioP2;P2;SDS_P1;SDS_P2;PMS_P1;PMS_P2;Temp;Humidity;BMP_temperature;BMP_pressure;BME280_temperature;BME280_humidity;BME280_pressure;Samples;Min_cycle;Max_cycle;Signal;HPM_P1;HPM_P2
2021/05/20 00:03:08;;;;;;;2.45;1.80;;;;;13.90;101852.00;;;;5092172;28;20193;-78
2021/05/20 00:05:54;;;;;;;3.20;2.05;;;;;13.90;101854.00;;;;5090542;28;20198;-78
2021/05/20 00:08:21;;;;;;;3.92;2.10;;;;;13.90;101855.00;;;;5103383;28;20201;-78
2021/05/20 00:10:48;;;;;;;4.47;2.67;;;;;13.80;101855.00;;;;5110092;28;20198;-78
2021/05/20 00:13:15;;;;;;;2.20;1.90;;;;;13.80;101855.00;;;;5096573;28;20274;-78
2021/05/20 00:15:42;;;;;;;3.13;2.47;;;;;13.80;101858.00;;;;5095794;28;20218;-78
2021/05/20 00:18:27;;;;;;;2.90;2.33;;;;;13.70;101860.00;;;;5109464;28;20278;-78
2021/05/20 00:20:54;;;;;;;2.92;2.13;;;;;13.80;101853.00;;;;5110072;28;20201;-78
2021/05/20 00:23:40;;;;;;;3.97;2.22;;;;;13.80;101853.00;;;;5108315;28;20194;-78
2021/05/20 00:26:10;;;;;;;2.60;2.10;;;;;13.80;101849.00;;;;5100953;28;20620;-79
2021/05/20 00:31:21;;;;;;;3.58;2.80;;;;;13.70;101856.00;;;;5100769;28;20231;-78
2021/05/20 00:34:07;;;;;;;2.50;2.05;;;;;13.60;101848.00;;;;5092225;28;20190;-78
2021/05/20 00:36:34;;;;;;;3.03;2.38;;;;;13.70;101845.00;;;;5089401;28;20218;-78
2021/05/20 00:39:02;;;;;;;2.83;2.35;;;;;13.70;101841.00;;;;5108289;28;20194;-78
2021/05/20 00:41:29;;;;;;;3.28;2.08;;;;;13.70;101834.00;;;;5108446;28;20545;-78
2021/05/20 00:44:15;;;;;;;4.15;3.33;;;;;13.60;101833.00;;;;5108968;28;20201;-78
2021/05/20 00:49:26;;;;;;;5.63;3.78;;;;;13.70;101850.00;;;;5093568;28;20254;-78
2021/05/20 00:52:31;;;;;;;5.75;3.78;;;;;13.60;101847.00;;;;5089738;28;20198;-78
2021/05/20 00:55:20;;;;;;;3.28;2.40;;;;;13.70;101855.00;;;;5089220;28;20198;-78
2021/05/20 00:58:06;;;;;;;3.13;2.40;;;;;13.60;101849.00;;;;5088999;28;20194;-78
2021/05/20 01:00:54;;;;;;;3.63;2.70;;;;;13.60;101850.00;;;;5095568;28;20643;-79
2021/05/20 01:03:21;;;;;;;4.70;3.38;;;;;13.70;101855.00;;;;5098784;28;20289;-78
2021/05/20 01:06:07;;;;;;;4.90;3.30;;;;;13.70;101851.00;;;;5101178;28;20194;-78
2021/05/20 01:11:38;;;;;;;5.22;3.38;;;;;13.70;101854.00;;;;5108902;28;20196;-78
2021/05/20 01:14:23;;;;;;;3.75;2.80;;;;;13.70;101845.00;;;;5107656;28;20193;-78
2021/05/20 01:17:09;;;;;;;6.75;2.88;;;;;13.70;101852.00;;;;5103319;28;20603;-78
2021/05/20 01:19:55;;;;;;;5.13;3.50;;;;;13.60;101864.00;;;;5089000;28;20194;-78
2021/05/20 01:25:08;;;;;;;5.40;3.47;;;;;13.70;101871.00;;;;5088585;28;20221;-78
2021/05/20 01:33:24;;;;;;;4.07;3.67;;;;;13.60;101872.00;;;;5088426;28;20644;-78
2021/05/20 01:35:51;;;;;;;6.05;4.10;;;;;13.70;101882.00;;;;5108276;28;20630;-78
2021/05/20 01:44:23;;;;;;;4.72;3.85;;;;;13.70;101887.00;;;;5107967;28;20200;-78
2021/05/20 01:49:35;;;;;;;5.03;4.53;;;;;13.70;101886.00;;;;5108915;28;20686;-78
2021/05/20 01:52:01;;;;;;;5.65;4.00;;;;;13.70;101888.00;;;;5105920;28;20202;-78
2021/05/20 01:55:06;;;;;;;6.43;5.15;;;;;13.70;101885.00;;;;5100479;28;20198;-78
2021/05/20 01:57:33;;;;;;;4.78;4.25;;;;;13.80;101892.00;;;;5095368;28;20216;-78
2021/05/20 02:00:02;;;;;;;6.38;4.78;;;;;13.80;101890.00;;;;5103677;28;20191;-78
2021/05/20 02:02:28;;;;;;;5.68;4.68;;;;;13.90;101885.00;;;;5092459;28;20202;-78
2021/05/20 02:05:14;;;;;;;6.50;4.50;;;;;13.80;101882.00;;;;5092303;28;20202;-78
2021/05/20 02:07:40;;;;;;;7.30;5.38;;;;;13.90;101879.00;;;;5108140;28;20197;-78
2021/05/20 02:13:12;;;;;;;6.50;4.70;;;;;14.00;101885.00;;;;5095931;28;20217;-78
2021/05/20 02:15:39;;;;;;;8.10;5.97;;;;;14.10;101879.00;;;;5092453;28;20218;-78
2021/05/20 02:24:32;;;;;;;7.80;5.43;;;;;14.10;101888.00;;;;5098498;28;20216;-78
2021/05/20 02:29:45;;;;;;;8.80;5.95;;;;;14.20;101890.00;;;;5092321;28;20235;-78
2021/05/20 02:32:31;;;;;;;8.20;6.10;;;;;14.20;101886.00;;;;5091359;28;20202;-78
2021/05/20 02:34:57;;;;;;;9.20;6.43;;;;;14.30;101875.00;;;;5091385;28;20628;-78
2021/05/20 02:37:43;;;;;;;10.55;7.07;;;;;14.40;101874.00;;;;5091184;28;20218;-78
2021/05/20 02:40:28;;;;;;;10.68;5.97;;;;;14.30;101871.00;;;;5098558;28;20292;-78
2021/05/20 02:42:55;;;;;;;7.93;5.32;;;;;14.50;101877.00;;;;5111742;28;20200;-78
2021/05/20 02:48:28;;;;;;;8.40;5.95;;;;;14.40;101872.00;;;;5111299;28;20189;-78
2021/05/20 02:51:13;;;;;;;8.30;5.97;;;;;14.50;101871.00;;;;5111229;28;20193;-78
2021/05/20 02:54:17;;;;;;;7.60;5.40;;;;;14.50;101878.00;;;;5091289;28;20205;-78
2021/05/20 02:56:44;;;;;;;8.18;5.97;;;;;14.60;101871.00;;;;5109369;28;20235;-78
2021/05/20 02:59:30;;;;;;;8.82;6.25;;;;;14.60;101873.00;;;;5111481;28;20202;-78
2021/05/20 03:02:03;;;;;;;12.77;6.82;;;;;14.70;101878.00;;;;5109411;28;20202;-78
2021/05/20 03:04:31;;;;;;;10.60;6.45;;;;;14.70;101875.00;;;;5092122;28;20289;-78
2021/05/20 03:07:16;;;;;;;8.15;6.32;;;;;14.60;101876.00;;;;5109540;28;20201;-78
2021/05/20 03:12:47;;;;;;;6.97;5.32;;;;;14.70;101883.00;;;;5109255;28;20204;-78
2021/05/20 03:15:14;;;;;;;11.27;5.85;;;;;14.80;101872.00;;;;5107242;28;20553;-78
2021/05/20 03:18:18;;;;;;;14.55;5.72;;;;;14.70;101876.00;;;;5090774;28;20599;-78
2021/05/20 03:20:45;;;;;;;9.52;5.20;;;;;14.80;101875.00;;;;5103487;28;20202;-78
2021/05/20 03:23:31;;;;;;;9.82;6.20;;;;;14.70;101870.00;;;;5090454;28;20660;-78
2021/05/20 03:26:16;;;;;;;12.27;5.40;;;;;14.70;101864.00;;;;5094410;28;20214;-78
2021/05/20 03:34:31;;;;;;;10.77;5.90;;;;;14.70;101871.00;;;;5090081;28;20656;-78
2021/05/20 03:36:59;;;;;;;8.80;6.38;;;;;14.80;101877.00;;;;5097920;28;20225;-78
2021/05/20 03:42:29;;;;;;;9.30;5.85;;;;;14.70;101877.00;;;;5090485;28;20717;-78
2021/05/20 03:44:56;;;;;;;8.82;5.97;;;;;14.80;101877.00;;;;5090289;28;20194;-78
2021/05/20 03:53:12;;;;;;;10.90;5.35;;;;;14.90;101872.00;;;;5094599;28;20201;-79
2021/05/20 03:56:16;;;;;;;6.85;5.32;;;;;14.80;101879.00;;;;5109705;28;20670;-79
2021/05/20 04:02:05;;;;;;;8.32;5.20;;;;;14.80;101876.00;;;;5100416;28;20205;-78
2021/05/20 04:04:32;;;;;;;8.60;5.70;;;;;14.90;101882.00;;;;5089755;28;20197;-78
2021/05/20 04:07:17;;;;;;;10.30;5.65;;;;;14.90;101879.00;;;;5090148;28;20198;-78
2021/05/20 04:09:44;;;;;;;8.68;6.57;;;;;15.00;101878.00;;;;5096429;28;20195;-78
2021/05/20 04:21:21;;;;;;;15.27;7.22;;;;;14.90;101891.00;;;;5106756;28;20347;-78
2021/05/20 04:24:07;;;;;;;8.15;6.22;;;;;14.90;101892.00;;;;5088925;28;20194;-78
2021/05/20 04:26:53;;;;;;;8.50;5.70;;;;;14.90;101887.00;;;;5089530;28;20198;-78
2021/05/20 04:32:42;;;;;;;7.97;6.18;;;;;15.00;101891.00;;;;5101769;28;20762;-78
2021/05/20 04:35:09;;;;;;;8.98;6.95;;;;;15.00;101894.00;;;;5098405;28;20201;-78
2021/05/20 04:37:36;;;;;;;9.70;6.35;;;;;15.00;101884.00;;;;5093635;28;20217;-78
2021/05/20 04:40:04;;;;;;;10.52;7.28;;;;;15.00;101887.00;;;;5108958;28;20217;-79
2021/05/20 04:45:54;;;;;;;12.13;7.18;;;;;15.10;101883.00;;;;5089413;28;20247;-79
2021/05/20 04:48:21;;;;;;;9.55;6.53;;;;;15.10;101882.00;;;;5093250;28;20213;-79
2021/05/20 04:51:06;;;;;;;10.23;6.30;;;;;15.20;101893.00;;;;5108477;28;20568;-79
2021/05/20 04:53:34;;;;;;;10.75;7.13;;;;;15.20;101896.00;;;;5095773;28;20216;-79
2021/05/20 04:56:01;;;;;;;11.32;6.90;;;;;15.20;101896.00;;;;5102641;28;20233;-78
2021/05/20 05:04:17;;;;;;;9.90;6.18;;;;;15.30;101901.00;;;;5090188;28;20209;-76
2021/05/20 05:09:28;;;;;;;11.48;7.15;;;;;15.40;101901.00;;;;5096520;28;20251;-76
2021/05/20 05:20:29;;;;;;;16.80;7.78;;;;;15.50;101908.00;;;;5104037;28;20291;-77
2021/05/20 05:22:56;;;;;;;11.60;6.68;;;;;15.50;101906.00;;;;5098567;28;20208;-77
2021/05/20 05:25:41;;;;;;;15.40;6.85;;;;;15.40;101904.00;;;;5107004;28;20228;-77
2021/05/20 05:31:32;;;;;;;11.65;7.45;;;;;15.50;101898.00;;;;5101994;28;20205;-76
2021/05/20 05:34:21;;;;;;;14.57;7.35;;;;;15.50;101905.00;;;;5106608;28;20205;-78
2021/05/20 05:37:06;;;;;;;11.07;6.78;;;;;15.60;101903.00;;;;5093248;28;20225;-78
2021/05/20 05:40:10;;;;;;;13.00;7.95;;;;;15.60;101902.00;;;;5097075;28;20900;-78
2021/05/20 05:42:37;;;;;;;13.05;8.07;;;;;15.70;101905.00;;;;5107362;28;20193;-78
2021/05/20 05:45:05;;;;;;;15.77;8.32;;;;;15.70;101912.00;;;;5109322;28;20201;-78
2021/05/20 05:47:32;;;;;;;12.57;7.43;;;;;15.80;101912.00;;;;5100861;28;20291;-77
2021/05/20 05:50:05;;;;;;;12.77;8.13;;;;;15.80;101913.00;;;;5107723;28;20270;-77
2021/05/20 05:52:32;;;;;;;14.15;7.80;;;;;15.80;101911.00;;;;5105645;28;20202;-77
2021/05/20 05:58:40;;;;;;;12.15;6.78;;;;;15.80;101909.00;;;;5104739;28;20209;-76
2021/05/20 06:04:11;;;;;;;13.25;7.38;;;;;16.00;101908.00;;;;5102659;28;20266;-79
2021/05/20 06:06:41;;;;;;;14.82;8.90;;;;;16.00;101902.00;;;;5110403;28;20202;-80
2021/05/20 06:09:08;;;;;;;14.98;7.47;;;;;16.10;101907.00;;;;5092240;28;20206;-79
2021/05/20 06:11:53;;;;;;;11.07;6.88;;;;;16.00;101905.00;;;;5102810;28;20656;-78
2021/05/20 06:20:28;;;;;;;14.77;7.82;;;;;16.20;101916.00;;;;5091076;28;20205;-80
2021/05/20 06:23:14;;;;;;;16.40;8.00;;;;;16.20;101925.00;;;;5091250;28;20198;-80
2021/05/20 06:25:41;;;;;;;13.50;7.50;;;;;16.30;101919.00;;;;5091375;28;20217;-80
2021/05/20 06:28:08;;;;;;;13.73;7.75;;;;;16.30;101922.00;;;;5111433;28;20232;-81
2021/05/20 06:33:20;;;;;;;12.48;7.95;;;;;16.40;101919.00;;;;5091470;28;20646;-80
2021/05/20 06:36:06;;;;;;;16.00;8.45;;;;;16.30;101919.00;;;;5105099;28;20596;-82
2021/05/20 06:38:34;;;;;;;15.65;9.73;;;;;16.40;101915.00;;;;5102292;28;20198;-81
2021/05/20 06:49:34;;;;;;;17.70;10.00;;;;;16.50;101935.00;;;;5106996;28;20246;-82
2021/05/20 06:52:19;;;;;;;18.85;10.75;;;;;16.50;101939.00;;;;5090797;28;20202;-81
2021/05/20 06:55:06;;;;;;;16.00;9.68;;;;;16.60;101944.00;;;;5097343;28;20193;-79
2021/05/20 07:00:55;;;;;;;19.80;10.48;;;;;16.60;101954.00;;;;5090889;28;20713;-80
2021/05/20 07:03:21;;;;;;;15.23;9.23;;;;;16.70;101954.00;;;;5105434;28;20209;-81
2021/05/20 07:05:49;;;;;;;17.85;10.57;;;;;16.80;101947.00;;;;5095976;28;20219;-80
2021/05/20 07:08:16;;;;;;;20.90;11.63;;;;;16.80;101953.00;;;;5092103;28;20206;-80
2021/05/20 07:10:44;;;;;;;18.33;11.10;;;;;16.80;101949.00;;;;5102754;28;20206;-80
2021/05/20 07:16:14;;;;;;;16.50;9.70;;;;;16.90;101954.00;;;;5097635;28;20244;-81
2021/05/20 07:18:59;;;;;;;16.90;9.50;;;;;16.90;101957.00;;;;5093408;28;20238;-80
2021/05/20 07:21:45;;;;;;;15.38;8.82;;;;;16.90;101954.00;;;;5102730;28;20205;-80
2021/05/20 07:24:11;;;;;;;20.88;10.85;;;;;16.90;101951.00;;;;5110582;28;20197;-80
2021/05/20 07:26:39;;;;;;;20.63;11.55;;;;;16.90;101948.00;;;;5110682;28;20193;-80
2021/05/20 07:29:06;;;;;;;21.17;11.50;;;;;17.00;101941.00;;;;5107007;28;20194;-80
2021/05/20 07:34:55;;;;;;;19.83;10.93;;;;;17.00;101936.00;;;;5098389;28;20204;-80
2021/05/20 07:37:22;;;;;;;21.85;11.20;;;;;17.10;101929.00;;;;5103281;28;20218;-80
2021/05/20 07:39:48;;;;;;;19.98;11.60;;;;;17.10;101929.00;;;;5090248;28;20201;-80
2021/05/20 07:45:01;;;;;;;19.88;10.52;;;;;17.20;101929.00;;;;5111025;28;20755;-80
2021/05/20 07:47:48;;;;;;;21.38;12.10;;;;;17.10;101931.00;;;;5110151;28;20220;-80
2021/05/20 07:50:33;;;;;;;19.60;11.48;;;;;17.20;101927.00;;;;5109333;28;20194;-80
2021/05/20 07:58:53;;;;;;;22.48;13.48;;;;;17.40;101943.00;;;;5092215;28;20320;-81
2021/05/20 08:01:20;;;;;;;19.75;11.65;;;;;17.40;101946.00;;;;5096040;28;20194;-80
2021/05/20 08:04:08;;;;;;;19.95;11.85;;;;;17.50;101936.00;;;;5090315;28;20198;-80
2021/05/20 08:06:57;;;;;;;20.77;11.45;;;;;17.50;101944.00;;;;5110265;28;20694;-80
2021/05/20 08:18:37;;;;;;;17.58;10.13;;;;;17.80;101928.00;;;;5091650;28;20599;-80
2021/05/20 08:21:22;;;;;;;17.83;10.30;;;;;17.90;101926.00;;;;5106359;28;20201;-80
2021/05/20 08:23:49;;;;;;;13.93;9.95;;;;;18.10;101916.00;;;;5091582;28;20255;-80
2021/05/20 08:26:16;;;;;;;15.85;9.90;;;;;18.20;101914.00;;;;5102788;28;20226;-81
2021/05/20 08:29:20;;;;;;;15.68;11.63;;;;;18.30;101919.00;;;;5110503;28;20186;-80
2021/05/20 08:32:05;;;;;;;17.20;12.27;;;;;18.50;101911.00;;;;5109293;28;20200;-80
2021/05/20 08:34:33;;;;;;;14.68;10.52;;;;;18.60;101907.00;;;;5109207;28;20205;-80
2021/05/20 08:37:01;;;;;;;18.65;12.52;;;;;18.70;101917.00;;;;5109556;28;20225;-80
2021/05/20 08:42:32;;;;;;;13.52;10.75;;;;;18.70;101896.00;;;;5089943;28;20250;-80
2021/05/20 08:48:22;;;;;;;15.02;12.13;;;;;18.80;101888.00;;;;5088762;28;20422;-81
2021/05/20 08:50:50;;;;;;;16.38;12.18;;;;;19.00;101892.00;;;;5088693;28;20271;-81
2021/05/20 08:53:35;;;;;;;15.95;11.93;;;;;19.00;101889.00;;;;5102408;28;20191;-79
2021/05/20 08:59:25;;;;;;;15.27;11.73;;;;;19.30;101878.00;;;;5097926;28;20290;-81
2021/05/20 09:02:11;;;;;;;16.40;12.48;;;;;19.40;101874.00;;;;5098222;28;20667;-81
2021/05/20 09:08:02;;;;;;;12.57;9.98;;;;;19.60;101890.00;;;;5088225;28;20713;-82
2021/05/20 09:10:49;;;;;;;12.98;9.85;;;;;19.90;101889.00;;;;5100633;28;20190;-80
2021/05/20 09:13:18;;;;;;;13.00;9.63;;;;;20.10;101890.00;;;;5105064;28;20201;-80
2021/05/20 09:16:04;;;;;;;12.48;9.60;;;;;20.10;101890.00;;;;5091975;28;20194;-78
2021/05/20 09:22:04;;;;;;;11.63;8.75;;;;;20.20;101884.00;;;;5144469;27;20195;-82
2021/05/20 09:24:50;;;;;;;10.48;8.82;;;;;20.20;101880.00;;;;5126630;27;20189;-81
2021/05/20 09:33:46;;;;;;;8.18;7.30;;;;;20.50;101880.00;;;;5115747;28;20349;-80
2021/05/20 09:36:20;;;;;;;8.35;6.60;;;;;20.70;101880.00;;;;5125009;28;20189;-80
2021/05/20 09:38:47;;;;;;;9.25;7.28;;;;;20.90;101879.00;;;;5124705;28;20193;-81
2021/05/20 09:41:18;;;;;;;10.73;7.68;;;;;20.90;101872.00;;;;5110534;28;20201;-81
2021/05/20 09:44:04;;;;;;;10.32;8.45;;;;;21.10;101880.00;;;;5122688;28;20273;-81
2021/05/20 09:46:43;;;;;;;10.63;8.98;;;;;21.20;101870.00;;;;5122723;28;20271;-81
2021/05/20 09:49:29;;;;;;;11.30;9.02;;;;;21.30;101871.00;;;;5124737;28;20192;-83
2021/05/20 09:52:29;;;;;;;11.90;8.27;;;;;21.40;101864.00;;;;5112698;28;20263;-81
2021/05/20 09:55:33;;;;;;;14.10;11.07;;;;;21.40;101870.00;;;;5124137;28;20193;-81
2021/05/20 10:01:19;;;;;;;12.80;9.98;;;;;21.60;101854.00;;;;5118174;28;20208;-81
2021/05/20 10:03:53;;;;;;;13.18;10.40;;;;;21.80;101848.00;;;;5120035;28;20205;-83
2021/05/20 10:06:40;;;;;;;13.85;11.25;;;;;21.90;101849.00;;;;5124785;28;20208;-82
2021/05/20 10:09:08;;;;;;;12.40;11.02;;;;;22.10;101840.00;;;;5123101;28;20278;-81
2021/05/20 10:11:36;;;;;;;12.27;10.27;;;;;22.30;101845.00;;;;5124034;28;20655;-82
2021/05/20 10:14:22;;;;;;;12.65;10.77;;;;;22.30;101837.00;;;;5112001;28;20198;-81
2021/05/20 10:17:08;;;;;;;11.25;9.25;;;;;22.40;101838.00;;;;5121123;28;20710;-82
2021/05/20 10:19:37;;;;;;;12.32;10.90;;;;;22.60;101839.00;;;;5124381;28;20201;-81
2021/05/20 10:25:09;;;;;;;12.35;10.35;;;;;22.70;101828.00;;;;5117588;28;20243;-82
2021/05/20 10:27:55;;;;;;;10.55;9.50;;;;;22.80;101822.00;;;;5122746;28;20211;-81
2021/05/20 10:33:31;;;;;;;12.02;9.50;;;;;22.80;101812.00;;;;5110125;28;20205;-83
2021/05/20 10:36:00;;;;;;;10.63;9.52;;;;;22.80;101818.00;;;;5089572;28;20203;-81
2021/05/20 10:41:26;;;;;;;10.25;8.98;;;;;22.80;101803.00;;;;5097001;28;20224;-79
2021/05/20 10:44:09;;;;;;;12.90;10.43;;;;;22.70;101803.00;;;;5111566;28;20198;-79
2021/05/20 10:47:02;;;;;;;12.88;10.45;;;;;22.60;101799.00;;;;5111636;28;20648;-81
2021/05/20 10:50:00;;;;;;;12.60;10.57;;;;;22.60;101800.00;;;;5109580;28;20206;-81
2021/05/20 10:53:01;;;;;;;13.18;10.88;;;;;22.60;101804.00;;;;5103353;28;20262;-81
2021/05/20 10:55:37;;;;;;;12.45;10.95;;;;;22.70;101794.00;;;;5092670;28;20674;-82
2021/05/20 11:00:49;;;;;;;12.88;11.40;;;;;22.90;101786.00;;;;5097967;28;20192;-81
2021/05/20 11:03:50;;;;;;;16.50;11.70;;;;;22.90;101776.00;;;;5106490;28;20193;-80
2021/05/20 11:06:17;;;;;;;11.43;9.50;;;;;23.00;101763.00;;;;5092407;28;20210;-80
2021/05/20 11:09:03;;;;;;;14.10;10.80;;;;;23.00;101764.00;;;;5089451;28;20198;-80
2021/05/20 11:11:49;;;;;;;14.30;11.43;;;;;23.00;101758.00;;;;5090836;28;20198;-81
2021/05/20 11:17:43;;;;;;;16.33;12.40;;;;;23.30;101750.00;;;;5090016;28;20232;-82
2021/05/20 11:23:30;;;;;;;14.30;12.18;;;;;23.60;101744.00;;;;5091183;28;20201;-82
2021/05/20 11:26:16;;;;;;;15.25;11.93;;;;;23.70;101741.00;;;;5090515;28;20715;-82
2021/05/20 11:35:15;;;;;;;18.42;13.75;;;;;23.90;101726.00;;;;5110205;28;20215;-81
2021/05/20 11:38:02;;;;;;;19.58;14.50;;;;;23.90;101727.00;;;;5109036;28;20226;-80
2021/05/20 11:40:31;;;;;;;21.13;16.17;;;;;24.00;101725.00;;;;5108013;27;20229;-83
2021/05/20 11:42:59;;;;;;;20.98;15.38;;;;;23.90;101712.00;;;;5109851;28;20201;-79
2021/05/20 11:45:27;;;;;;;21.08;16.33;;;;;23.90;101708.00;;;;5107944;28;20217;-78
2021/05/20 11:50:49;;;;;;;17.70;13.35;;;;;23.80;101698.00;;;;5109731;28;20685;-77
2021/05/20 11:56:35;;;;;;;18.17;12.00;;;;;23.60;101689.00;;;;5110052;28;20208;-76
2021/05/20 12:02:42;;;;;;;15.20;12.93;;;;;23.60;101676.00;;;;5110038;28;20227;-80
2021/05/20 12:05:11;;;;;;;16.17;13.15;;;;;23.70;101674.00;;;;5110296;28;20731;-78
2021/05/20 12:14:04;;;;;;;15.45;11.50;;;;;23.50;101646.00;;;;5110215;28;20203;-78
2021/05/20 12:17:00;;;;;;;13.00;11.60;;;;;23.40;101638.00;;;;5110490;28;20205;-79
2021/05/20 12:19:46;;;;;;;16.15;12.35;;;;;23.50;101637.00;;;;5109049;28;20253;-80
2021/05/20 12:22:50;;;;;;;14.50;11.95;;;;;23.30;101640.00;;;;5109609;28;20209;-79
2021/05/20 12:25:18;;;;;;;14.70;11.68;;;;;23.40;101635.00;;;;5089263;28;20233;-79
2021/05/20 12:28:09;;;;;;;15.52;11.90;;;;;23.30;101643.00;;;;5089296;28;20384;-79
2021/05/20 12:30:55;;;;;;;12.40;10.88;;;;;23.50;101643.00;;;;5098184;28;20205;-80
2021/05/20 12:33:21;;;;;;;11.73;10.52;;;;;23.50;101636.00;;;;5109484;28;20246;-78
2021/05/20 12:36:25;;;;;;;12.30;9.80;;;;;23.40;101625.00;;;;5109603;28;20621;-80
2021/05/20 12:41:38;;;;;;;10.50;8.98;;;;;23.60;101632.00;;;;5109578;28;20574;-78
2021/05/20 12:44:16;;;;;;;9.77;8.77;;;;;23.50;101628.00;;;;5109207;28;20208;-78
2021/05/20 12:49:59;;;;;;;9.20;8.30;;;;;23.60;101618.00;;;;5109406;28;20297;-80
2021/05/20 12:52:26;;;;;;;8.77;7.88;;;;;23.50;101603.00;;;;5108512;28;20198;-79
2021/05/20 12:55:07;;;;;;;7.97;7.03;;;;;23.30;101613.00;;;;5108881;28;20201;-79
2021/05/20 12:57:55;;;;;;;7.65;6.93;;;;;23.30;101597.00;;;;5109601;28;20681;-80
2021/05/20 13:03:26;;;;;;;9.25;7.30;;;;;23.20;101589.00;;;;5108324;28;20678;-77
2021/05/20 13:06:17;;;;;;;8.55;5.93;;;;;23.00;101587.00;;;;5108875;28;20196;-78
2021/05/20 13:08:44;;;;;;;6.00;5.43;;;;;23.10;101585.00;;;;5108593;28;20694;-78
2021/05/20 13:11:18;;;;;;;7.65;6.90;;;;;23.10;101586.00;;;;5108570;28;20227;-77
2021/05/20 13:16:54;;;;;;;5.68;5.15;;;;;23.20;101571.00;;;;5088180;28;20209;-79
2021/05/20 13:19:56;;;;;;;5.20;4.70;;;;;23.30;101559.00;;;;5090024;28;20222;-78
2021/05/20 13:22:27;;;;;;;3.85;3.50;;;;;23.30;101565.00;;;;5088758;28;20565;-78
2021/05/20 13:25:31;;;;;;;4.32;3.60;;;;;23.20;101578.00;;;;5105134;28;20221;-79
2021/05/20 13:27:58;;;;;;;3.33;3.03;;;;;23.30;101573.00;;;;5108827;28;20222;-78
2021/05/20 13:30:34;;;;;;;4.70;3.38;;;;;23.30;101550.00;;;;5106709;28;20246;-77
2021/05/20 13:35:48;;;;;;;3.00;2.75;;;;;23.30;101541.00;;;;5097570;28;20213;-77
2021/05/20 13:38:34;;;;;;;5.25;3.22;;;;;23.20;101537.00;;;;5105458;28;20213;-77
2021/05/20 13:41:19;;;;;;;2.85;2.60;;;;;23.40;101538.00;;;;5107787;28;20200;-80
2021/05/20 13:44:05;;;;;;;3.72;3.33;;;;;23.30;101534.00;;;;5089822;28;20194;-79
2021/05/20 13:46:32;;;;;;;3.85;2.92;;;;;23.30;101523.00;;;;5106853;28;20632;-78
2021/05/20 13:52:02;;;;;;;2.70;2.50;;;;;23.20;101525.00;;;;5097247;28;20831;-77
2021/05/20 13:54:29;;;;;;;2.50;2.13;;;;;23.20;101523.00;;;;5096298;28;20213;-78
2021/05/20 13:57:15;;;;;;;2.95;2.20;;;;;23.00;101526.00;;;;5099894;28;20190;-77
2021/05/20 13:59:43;;;;;;;2.53;2.28;;;;;23.10;101523.00;;;;5102849;28;20209;-79
2021/05/20 14:02:11;;;;;;;3.47;3.03;;;;;23.00;101526.00;;;;5097274;28;20205;-78
2021/05/20 14:04:57;;;;;;;3.17;1.98;;;;;22.90;101526.00;;;;5096099;28;20310;-78
2021/05/20 14:07:24;;;;;;;3.40;2.13;;;;;22.80;101529.00;;;;5098542;28;20202;-76
2021/05/20 14:09:51;;;;;;;5.50;2.90;;;;;22.80;101535.00;;;;5096812;28;20256;-83
2021/05/20 14:12:19;;;;;;;3.08;2.45;;;;;22.70;101534.00;;;;5112147;28;20199;-81
2021/05/20 14:15:23;;;;;;;4.15;3.17;;;;;22.50;101527.00;;;;5110004;28;20194;-81
2021/05/20 14:18:08;;;;;;;3.97;2.90;;;;;22.40;101528.00;;;;5100799;28;20236;-82
2021/05/20 14:21:19;;;;;;;3.72;2.65;;;;;22.40;101524.00;;;;5109614;28;20578;-81
2021/05/20 14:26:32;;;;;;;4.45;2.42;;;;;22.30;101517.00;;;;5110943;28;20229;-79
2021/05/20 14:32:22;;;;;;;2.42;1.65;;;;;22.10;101522.00;;;;5110413;28;20279;-77
2021/05/20 14:34:50;;;;;;;3.53;1.80;;;;;22.20;101511.00;;;;5110107;28;20815;-81
2021/05/20 14:37:17;;;;;;;2.33;1.67;;;;;22.10;101500.00;;;;5110370;28;20217;-77
2021/05/20 14:40:05;;;;;;;2.15;1.52;;;;;22.10;101505.00;;;;5108341;28;20233;-77
2021/05/20 14:42:50;;;;;;;2.78;1.58;;;;;22.00;101502.00;;;;5091719;28;20224;-77
2021/05/20 14:45:37;;;;;;;2.72;1.77;;;;;22.10;101507.00;;;;5101716;28;20202;-76
2021/05/20 14:48:05;;;;;;;1.58;1.40;;;;;22.10;101512.00;;;;5090392;28;20722;-77
2021/05/20 14:50:34;;;;;;;3.65;1.60;;;;;22.10;101508.00;;;;5098173;28;20194;-80
2021/05/20 15:08:40;;;;;;;2.47;1.55;;;;;21.90;101474.00;;;;5100973;28;20205;-80
2021/05/20 15:11:12;;;;;;;2.15;1.40;;;;;22.00;101470.00;;;;5091446;28;20206;-80
2021/05/20 15:16:28;;;;;;;1.95;1.40;;;;;22.00;101466.00;;;;5110959;28;20212;-81
2021/05/20 15:18:55;;;;;;;2.63;1.23;;;;;22.00;101457.00;;;;5110347;28;20229;-81
2021/05/20 15:21:40;;;;;;;4.18;1.35;;;;;21.90;101446.00;;;;5111301;28;20545;-83
2021/05/20 15:27:12;;;;;;;3.20;1.50;;;;;22.00;101440.00;;;;5111040;28;20678;-82
2021/05/20 15:33:20;;;;;;;1.55;0.98;;;;;21.90;101423.00;;;;5091269;28;20327;-82
2021/05/20 15:35:48;;;;;;;1.85;1.15;;;;;22.10;101429.00;;;;5093144;28;20197;-81
2021/05/20 15:38:14;;;;;;;3.78;1.52;;;;;22.10;101419.00;;;;5104862;28;20268;-82
2021/05/20 15:40:42;;;;;;;2.55;1.77;;;;;22.20;101406.00;;;;5108956;28;20194;-82
2021/05/20 15:43:09;;;;;;;2.45;1.60;;;;;22.20;101408.00;;;;5109014;28;20667;-81
2021/05/20 15:45:36;;;;;;;3.88;2.10;;;;;22.20;101408.00;;;;5106693;28;20209;-80
2021/05/20 15:48:18;;;;;;;2.78;1.83;;;;;22.20;101407.00;;;;5099115;28;20198;-81
2021/05/20 15:50:47;;;;;;;3.20;1.90;;;;;22.10;101401.00;;;;5101031;28;20212;-81
2021/05/20 15:53:15;;;;;;;1.60;1.25;;;;;22.10;101392.00;;;;5095709;28;20324;-81
2021/05/20 15:55:42;;;;;;;3.22;1.70;;;;;22.10;101376.00;;;;5097557;28;20256;-81
2021/05/20 15:58:09;;;;;;;2.05;1.70;;;;;22.00;101385.00;;;;5096843;28;20696;-81
2021/05/20 16:00:35;;;;;;;2.38;1.92;;;;;22.00;101371.00;;;;5096580;28;20270;-81
2021/05/20 16:05:48;;;;;;;3.58;1.77;;;;;21.90;101360.00;;;;5107270;28;20204;-80
2021/05/20 16:08:22;;;;;;;3.20;2.13;;;;;21.90;101343.00;;;;5102351;28;20221;-80
2021/05/20 16:11:17;;;;;;;2.88;1.42;;;;;21.90;101338.00;;;;5094576;28;20211;-80
2021/05/20 16:14:15;;;;;;;2.15;1.40;;;;;21.70;101329.00;;;;5103371;28;20200;-80
2021/05/20 16:20:05;;;;;;;1.75;1.55;;;;;21.60;101318.00;;;;5059304;28;20210;-80
2021/05/20 16:25:53;;;;;;;2.50;1.38;;;;;21.70;101304.00;;;;5066167;28;20229;-79
2021/05/20 16:37:18;;;;;;;1.35;0.90;;;;;21.60;101306.00;;;;5065597;28;20268;-80
2021/05/20 16:42:30;;;;;;;1.55;0.90;;;;;21.70;101301.00;;;;5068120;28;20252;-80
2021/05/20 16:45:16;;;;;;;1.40;0.90;;;;;21.60;101289.00;;;;5067323;28;20566;-82
2021/05/20 16:50:28;;;;;;;1.05;0.80;;;;;21.70;101281.00;;;;5067299;28;20201;-81
2021/05/20 16:53:14;;;;;;;0.90;0.70;;;;;21.70;101269.00;;;;5068305;28;20206;-81
2021/05/20 16:56:04;;;;;;;0.80;0.57;;;;;21.50;101271.00;;;;5067941;28;20206;-82
2021/05/20 16:58:49;;;;;;;0.65;0.57;;;;;21.70;101265.00;;;;5066221;28;20309;-81
2021/05/20 17:01:17;;;;;;;1.48;0.60;;;;;21.70;101260.00;;;;5063713;28;20191;-82
2021/05/20 17:03:44;;;;;;;0.98;0.77;;;;;21.70;101262.00;;;;5066872;28;20206;-83
2021/05/20 17:09:15;;;;;;;3.00;0.68;;;;;21.60;101254.00;;;;5067153;28;20661;-82
2021/05/20 17:11:42;;;;;;;1.95;0.57;;;;;21.50;101252.00;;;;5067676;28;20203;-81
2021/05/20 17:17:32;;;;;;;1.10;0.60;;;;;21.40;101239.00;;;;5071686;28;20233;-79
2021/05/20 17:20:17;;;;;;;0.88;0.50;;;;;21.30;101232.00;;;;5101435;28;20190;-76
2021/05/20 17:22:44;;;;;;;0.60;0.52;;;;;21.30;101223.00;;;;5102453;28;20255;-78
2021/05/20 17:25:30;;;;;;;0.75;0.50;;;;;21.20;101204.00;;;;5105887;28;20650;-77
2021/05/20 17:27:58;;;;;;;0.65;0.52;;;;;21.10;101206.00;;;;5092517;28;20197;-77
2021/05/20 17:30:25;;;;;;;1.05;0.60;;;;;21.10;101208.00;;;;5098506;28;20199;-77
2021/05/20 17:33:10;;;;;;;0.40;0.30;;;;;21.10;101226.00;;;;5103837;28;20266;-76
2021/05/20 17:35:38;;;;;;;4.38;1.35;;;;;21.00;101209.00;;;;5108588;28;20200;-79
2021/05/20 17:41:08;;;;;;;1.00;0.43;;;;;20.90;101215.00;;;;5106304;28;20673;-77
2021/05/20 17:50:01;;;;;;;1.48;0.57;;;;;20.80;101206.00;;;;5104301;28;20726;-79